Time;durP1;ratioP1;P1;durP2;ratioP2;P2;SDS_P1;SDS_P2;PMS_P1;PMS_P2;Temp;Humidity;BMP_temperature;BMP_pressure;BME280_temperature;BME280_humidity;BME280_pressure;Samples;Min_cycle;Max_cycle;Signal;HPM_P1;HPM_P2
2021/08/29 00:01:42;;;;;;;;;;;;;;;34.96;26.96;93790.94;4891326;29;20342;-52
2021/08/29 00:04:09;;;;;;;;;;;;;;;35.07;26.64;93788.50;4878279;29;19924;-51
2021/08/29 00:06:36;;;;;;;;;;;;;;;34.91;26.94;93782.22;4886585;29;20514;-51
2021/08/29 00:09:04;;;;;;;;;;;;;;;34.82;26.93;93782.19;4896468;29;20358;-48
2021/08/29 00:11:32;;;;;;;;;;;;;;;34.99;26.85;93779.19;4895303;29;19923;-49
2021/08/29 00:13:59;;;;;;;;;;;;;;;34.61;27.26;93777.69;4898771;29;19928;-48
2021/08/29 00:16:26;;;;;;;;;;;;;;;34.82;27.00;93779.47;4898565;29;19935;-48
2021/08/29 00:18:53;;;;;;;;;;;;;;;34.67;27.28;93778.63;4896127;29;19934;-49
2021/08/29 00:21:20;;;;;;;;;;;;;;;34.80;27.13;93779.19;4896290;29;20337;-49
2021/08/29 00:23:46;;;;;;;;;;;;;;;34.82;27.16;93776.75;4897469;29;19925;-50
2021/08/29 00:26:13;;;;;;;;;;;;;;;34.87;27.18;93781.63;4896147;29;19928;-50
2021/08/29 00:28:41;;;;;;;;;;;;;;;34.67;27.46;93777.88;4895692;29;19930;-51
2021/08/29 00:31:08;;;;;;;;;;;;;;;34.38;28.15;93772.94;4896501;29;19927;-51
2021/08/29 00:33:34;;;;;;;;;;;;;;;34.40;28.08;93765.84;4896093;29;20337;-51
2021/08/29 00:36:01;;;;;;;;;;;;;;;34.50;28.03;93772.00;4896063;29;19924;-53
2021/08/29 00:38:28;;;;;;;;;;;;;;;34.40;28.08;93773.97;4879355;29;19923;-53
2021/08/29 00:40:55;;;;;;;;;;;;;;;34.27;28.34;93776.81;4896159;29;19943;-50
2021/08/29 00:43:22;;;;;;;;;;;;;;;34.48;27.86;93772.47;4896903;29;19927;-52
2021/08/29 00:45:53;;;;;;;;;;;;;;;34.37;27.96;93782.28;4881596;29;19931;-52
2021/08/29 00:48:20;;;;;;;;;;;;;;;34.46;27.77;93779.53;4881661;29;19927;-47
2021/08/29 00:50:47;;;;;;;;;;;;;;;34.42;28.05;93776.25;4881407;29;20252;-49
2021/08/29 00:53:16;;;;;;;;;;;;;;;34.27;28.14;93784.19;4898788;29;19934;-49
2021/08/29 00:55:43;;;;;;;;;;;;;;;34.28;27.99;93791.88;4881266;29;19934;-48
2021/08/29 00:58:11;;;;;;;;;;;;;;;34.26;28.19;93798.97;4913394;29;20041;-51
2021/08/29 01:00:41;;;;;;;;;;;;;;;34.21;28.14;93789.47;4881478;29;19924;-50
2021/08/29 01:03:13;;;;;;;;;;;;;;;34.19;28.18;93780.28;4882190;29;20334;-52
2021/08/29 01:05:41;;;;;;;;;;;;;;;34.24;28.01;93785.84;4866517;29;20604;-50
2021/08/29 01:08:23;;;;;;;;;;;;;;;34.25;27.94;93787.34;4883851;29;19928;-48
2021/08/29 01:10:57;;;;;;;;;;;;;;;34.12;28.11;93784.06;4897467;29;19927;-49
2021/08/29 01:13:26;;;;;;;;;;;;;;;34.06;28.59;93774.22;4880829;29;19934;-51
2021/08/29 01:15:53;;;;;;;;;;;;;;;34.08;28.60;93769.88;4874510;29;19931;-51
2021/08/29 01:18:20;;;;;;;;;;;;;;;34.22;28.07;93769.28;4894157;29;19931;-52
2021/08/29 01:20:57;;;;;;;;;;;;;;;34.28;28.18;93769.41;4862688;29;19930;-52
2021/08/29 01:23:25;;;;;;;;;;;;;;;34.26;28.33;93775.28;4863545;29;19927;-56
2021/08/29 01:25:56;;;;;;;;;;;;;;;34.10;28.43;93775.63;4910705;29;19928;-50
2021/08/29 01:28:30;;;;;;;;;;;;;;;34.21;28.42;93775.91;4865572;29;19920;-48
2021/08/29 01:30:57;;;;;;;;;;;;;;;34.21;28.45;93786.75;4879270;29;19923;-49
2021/08/29 01:33:31;;;;;;;;;;;;;;;33.98;29.04;93792.75;4896594;29;20243;-52
2021/08/29 01:36:06;;;;;;;;;;;;;;;34.21;28.24;93802.28;4897824;29;19930;-51
2021/08/29 01:38:34;;;;;;;;;;;;;;;34.29;28.42;93801.50;4865138;29;20389;-51
2021/08/29 01:41:01;;;;;;;;;;;;;;;34.14;28.63;93803.34;4912059;29;20319;-48
2021/08/29 01:43:28;;;;;;;;;;;;;;;34.21;28.57;93813.88;4892258;29;19923;-49
2021/08/29 01:45:55;;;;;;;;;;;;;;;34.13;28.71;93817.34;4909491;29;19939;-48
2021/08/29 01:48:24;;;;;;;;;;;;;;;33.84;29.24;93812.31;4893919;29;20773;-50
2021/08/29 01:50:58;;;;;;;;;;;;;;;34.12;28.40;93813.88;4878427;29;19924;-53
2021/08/29 01:53:47;;;;;;;;;;;;;;;34.14;28.85;93822.31;4894010;29;19983;-51
2021/08/29 01:56:55;;;;;;;;;;;;;;;33.97;28.97;93808.28;4893826;29;19924;-51
2021/08/29 01:59:22;;;;;;;;;;;;;;;34.06;28.87;93804.81;4880325;29;19924;-52
2021/08/29 02:01:49;;;;;;;;;;;;;;;34.23;28.72;93808.75;4883955;29;19926;-51
2021/08/29 02:04:15;;;;;;;;;;;;;;;34.21;28.79;93819.31;4897589;29;19927;-50
2021/08/29 02:06:46;;;;;;;;;;;;;;;34.00;29.40;93810.09;4896683;29;19930;-49
2021/08/29 02:09:13;;;;;;;;;;;;;;;34.01;29.05;93808.13;4880501;29;19920;-50
2021/08/29 02:11:49;;;;;;;;;;;;;;;34.33;28.67;93804.81;4896221;29;20307;-50
2021/08/29 02:14:27;;;;;;;;;;;;;;;34.22;28.74;93801.81;4881325;29;19939;-51
2021/08/29 02:16:54;;;;;;;;;;;;;;;34.19;28.77;93794.59;4879059;29;19931;-50
2021/08/29 02:19:30;;;;;;;;;;;;;;;34.26;28.49;93805.13;4863361;29;19928;-49
2021/08/29 02:21:58;;;;;;;;;;;;;;;34.38;28.43;93810.91;4860621;29;19935;-50
2021/08/29 02:24:26;;;;;;;;;;;;;;;34.21;28.71;93803.03;4875593;29;19931;-51
2021/08/29 02:26:54;;;;;;;;;;;;;;;34.45;28.17;93797.03;4860315;29;20217;-50
2021/08/29 02:29:22;;;;;;;;;;;;;;;34.35;28.41;93804.41;4869568;29;19927;-53
2021/08/29 02:31:50;;;;;;;;;;;;;;;34.35;28.46;93809.06;4879804;29;19923;-50
2021/08/29 02:34:17;;;;;;;;;;;;;;;34.35;28.71;93800.94;4894133;29;19928;-55
2021/08/29 02:36:47;;;;;;;;;;;;;;;34.33;28.85;93795.94;4893639;29;19939;-50
2021/08/29 02:39:24;;;;;;;;;;;;;;;34.35;28.92;93795.50;4893282;29;20332;-48
2021/08/29 02:41:54;;;;;;;;;;;;;;;34.34;28.85;93802.91;4893882;29;20038;-51
2021/08/29 02:44:22;;;;;;;;;;;;;;;34.38;28.57;93805.47;4893099;29;19919;-51
2021/08/29 02:46:49;;;;;;;;;;;;;;;34.55;28.14;93820.22;4893759;29;19938;-51
2021/08/29 02:49:20;;;;;;;;;;;;;;;34.03;28.68;93819.28;4892736;29;19935;-48
2021/08/29 02:51:50;;;;;;;;;;;;;;;33.75;29.73;93821.13;4880770;29;19923;-49
2021/08/29 02:54:18;;;;;;;;;;;;;;;33.97;29.36;93826.50;4895806;29;19927;-49
2021/08/29 02:56:49;;;;;;;;;;;;;;;33.63;29.62;93806.53;4893706;29;20347;-46
2021/08/29 02:59:17;;;;;;;;;;;;;;;33.76;29.77;93792.09;4877694;29;19923;-46
2021/08/29 03:01:43;;;;;;;;;;;;;;;33.75;29.69;93788.63;4878056;29;19927;-47
2021/08/29 03:04:31;;;;;;;;;;;;;;;33.92;29.24;93786.44;4880429;29;19920;-47
2021/08/29 03:06:59;;;;;;;;;;;;;;;33.97;29.16;93799.38;4894958;29;19930;-47
2021/08/29 03:09:26;;;;;;;;;;;;;;;33.82;29.41;93837.13;4877584;29;19928;-47
2021/08/29 03:11:54;;;;;;;;;;;;;;;33.77;29.33;93828.81;4873736;29;19928;-47
2021/08/29 03:14:46;;;;;;;;;;;;;;;33.91;29.30;93822.88;4860647;29;20601;-48
2021/08/29 03:17:18;;;;;;;;;;;;;;;33.65;29.55;93796.00;4874132;29;19931;-47
2021/08/29 03:19:49;;;;;;;;;;;;;;;33.62;29.93;93779.88;4885012;29;19979;-46
2021/08/29 03:22:37;;;;;;;;;;;;;;;33.57;30.11;93751.41;4876593;29;19927;-45
2021/08/29 03:25:04;;;;;;;;;;;;;;;33.67;29.93;93750.22;4894433;29;19924;-47
2021/08/29 03:27:32;;;;;;;;;;;;;;;33.68;29.93;93773.41;4877696;29;20208;-48
2021/08/29 03:29:59;;;;;;;;;;;;;;;33.83;29.63;93805.34;4877199;29;19958;-48
2021/08/29 03:32:26;;;;;;;;;;;;;;;33.86;29.73;93818.81;4877596;29;19931;-45
2021/08/29 03:34:54;;;;;;;;;;;;;;;33.62;30.08;93805.00;4908344;29;19928;-52
2021/08/29 03:37:22;;;;;;;;;;;;;;;33.59;30.19;93797.78;4863700;29;20315;-47
2021/08/29 03:39:50;;;;;;;;;;;;;;;33.53;29.73;93804.22;4879247;29;19931;-48
2021/08/29 03:42:17;;;;;;;;;;;;;;;33.40;30.22;93796.22;4894767;29;19924;-50
2021/08/29 03:44:45;;;;;;;;;;;;;;;33.58;29.78;93795.53;4874587;29;19938;-50
2021/08/29 03:47:13;;;;;;;;;;;;;;;33.50;29.96;93792.31;4882664;29;20345;-48
2021/08/29 03:49:40;;;;;;;;;;;;;;;33.50;29.63;93784.19;4882481;29;19924;-47
2021/08/29 03:52:09;;;;;;;;;;;;;;;33.40;29.55;93801.63;4913545;29;19934;-49
2021/08/29 03:54:59;;;;;;;;;;;;;;;33.39;29.60;93803.59;4888911;29;19938;-49
2021/08/29 03:57:26;;;;;;;;;;;;;;;33.35;29.57;93802.22;4896689;29;20311;-48
2021/08/29 03:59:55;;;;;;;;;;;;;;;33.27;29.66;93809.06;4894349;29;19927;-47
2021/08/29 04:02:22;;;;;;;;;;;;;;;33.14;29.80;93805.69;4896564;29;19923;-48
2021/08/29 04:04:48;;;;;;;;;;;;;;;33.21;29.23;93800.00;4897971;29;19930;-49
2021/08/29 04:07:16;;;;;;;;;;;;;;;33.05;29.47;93803.69;4882374;29;20327;-49
2021/08/29 04:10:03;;;;;;;;;;;;;;;33.28;29.24;93815.97;4897572;29;19920;-47
2021/08/29 04:12:33;;;;;;;;;;;;;;;33.19;28.90;93813.22;4881477;29;19924;-48
2021/08/29 04:15:32;;;;;;;;;;;;;;;32.99;29.21;93811.63;4863700;29;20216;-47
2021/08/29 04:18:00;;;;;;;;;;;;;;;33.11;28.73;93818.94;4881630;29;19926;-49
2021/08/29 04:20:27;;;;;;;;;;;;;;;33.25;28.57;93816.88;4882365;29;19919;-46
2021/08/29 04:22:53;;;;;;;;;;;;;;;33.23;28.63;93828.16;4879382;29;20247;-47
2021/08/29 04:25:21;;;;;;;;;;;;;;;33.07;28.63;93823.72;4910255;29;20347;-47
2021/08/29 04:27:48;;;;;;;;;;;;;;;33.04;28.84;93823.81;4896285;29;20255;-48
2021/08/29 04:30:15;;;;;;;;;;;;;;;33.29;28.15;93823.66;4910171;29;19965;-48
2021/08/29 04:32:44;;;;;;;;;;;;;;;32.99;28.61;93822.47;4879300;29;19927;-48
2021/08/29 04:35:14;;;;;;;;;;;;;;;32.93;28.99;93835.06;4879363;29;19927;-47
2021/08/29 04:37:43;;;;;;;;;;;;;;;33.15;28.46;93828.88;4895046;29;20247;-47
2021/08/29 04:40:14;;;;;;;;;;;;;;;33.25;28.33;93833.13;4895517;29;19939;-47
2021/08/29 04:42:48;;;;;;;;;;;;;;;33.23;28.68;93820.03;4861103;29;19954;-47
2021/08/29 04:45:15;;;;;;;;;;;;;;;33.01;28.71;93825.47;4876576;29;19935;-49
2021/08/29 04:47:43;;;;;;;;;;;;;;;33.40;28.40;93828.72;4893892;29;19924;-48
2021/08/29 04:50:10;;;;;;;;;;;;;;;33.34;28.02;93838.63;4875965;29;20217;-47
2021/08/29 04:52:37;;;;;;;;;;;;;;;33.32;28.17;93843.72;4876201;29;19939;-48
2021/08/29 04:55:06;;;;;;;;;;;;;;;33.15;28.53;93842.41;4891581;29;19924;-49
2021/08/29 04:57:36;;;;;;;;;;;;;;;33.15;28.77;93853.22;4876429;29;19923;-50
2021/08/29 05:00:03;;;;;;;;;;;;;;;33.50;28.12;93843.03;4879198;29;20308;-50
2021/08/29 05:02:31;;;;;;;;;;;;;;;33.36;28.45;93822.69;4876803;29;20259;-48
2021/08/29 05:04:58;;;;;;;;;;;;;;;33.26;28.68;93818.38;4878922;29;19927;-54
2021/08/29 05:07:26;;;;;;;;;;;;;;;33.26;28.39;93818.38;4877862;29;19920;-49
2021/08/29 05:09:53;;;;;;;;;;;;;;;33.29;28.50;93801.22;4894163;29;19919;-50
2021/08/29 05:12:20;;;;;;;;;;;;;;;33.34;28.20;93798.00;4877943;29;19923;-46
2021/08/29 05:14:47;;;;;;;;;;;;;;;33.51;27.77;93801.94;4878654;29;19938;-49
2021/08/29 05:17:13;;;;;;;;;;;;;;;33.31;28.10;93801.53;4910473;29;20243;-50
2021/08/29 05:19:50;;;;;;;;;;;;;;;33.36;28.26;93799.06;4878722;29;19920;-47
2021/08/29 05:22:35;;;;;;;;;;;;;;;33.27;28.10;93800.94;4878135;29;20278;-48
2021/08/29 05:25:22;;;;;;;;;;;;;;;33.41;27.89;93797.72;4869053;29;19943;-48
2021/08/29 05:27:49;;;;;;;;;;;;;;;33.36;27.93;93806.44;4910271;29;20235;-49
2021/08/29 05:30:16;;;;;;;;;;;;;;;33.24;28.33;93815.34;4879578;29;19931;-48
2021/08/29 05:32:43;;;;;;;;;;;;;;;33.15;28.30;93812.63;4878867;29;19939;-47
2021/08/29 05:35:10;;;;;;;;;;;;;;;33.34;27.96;93809.59;4880595;29;19923;-47
2021/08/29 05:37:37;;;;;;;;;;;;;;;33.47;28.23;93812.19;4913428;29;19924;-48
2021/08/29 05:40:24;;;;;;;;;;;;;;;33.49;27.64;93817.91;4881834;29;19928;-47
2021/08/29 05:43:10;;;;;;;;;;;;;;;33.39;28.17;93817.13;4890874;29;19946;-47
2021/08/29 05:45:37;;;;;;;;;;;;;;;33.46;27.78;93813.38;4884532;29;19931;-47
2021/08/29 05:48:04;;;;;;;;;;;;;;;33.24;27.95;93815.34;4884969;29;19934;-47
2021/08/29 05:50:31;;;;;;;;;;;;;;;33.67;27.47;93811.78;4882336;29;20286;-48
2021/08/29 05:52:58;;;;;;;;;;;;;;;33.30;27.97;93802.75;4882114;29;19964;-49
2021/08/29 05:55:25;;;;;;;;;;;;;;;33.25;28.19;93806.78;4881913;29;19938;-47
2021/08/29 05:57:52;;;;;;;;;;;;;;;33.59;27.64;93807.88;4913332;29;19923;-49
2021/08/29 06:00:19;;;;;;;;;;;;;;;33.21;28.22;93813.53;4898726;29;19938;-48
2021/08/29 06:02:48;;;;;;;;;;;;;;;33.39;28.02;93811.72;4883404;29;19927;-48
2021/08/29 06:05:15;;;;;;;;;;;;;;;33.44;28.33;93802.25;4882696;29;19956;-48
2021/08/29 06:07:59;;;;;;;;;;;;;;;33.61;28.21;93805.47;4915606;29;19927;-47
2021/08/29 06:10:26;;;;;;;;;;;;;;;33.56;28.45;93806.78;4914889;29;19923;-48
2021/08/29 06:12:53;;;;;;;;;;;;;;;33.54;27.84;93806.47;4914466;29;20370;-47
2021/08/29 06:15:20;;;;;;;;;;;;;;;33.32;27.96;93803.88;4913345;29;19924;-47
2021/08/29 06:17:47;;;;;;;;;;;;;;;33.42;27.87;93810.06;4884466;29;19930;-46
2021/08/29 06:20:14;;;;;;;;;;;;;;;33.56;27.95;93809.50;4899497;29;20361;-48
2021/08/29 06:22:42;;;;;;;;;;;;;;;33.49;28.04;93809.78;4915766;29;19919;-48
2021/08/29 06:25:43;;;;;;;;;;;;;;;33.64;27.47;93816.16;4898438;29;19924;-48
2021/08/29 06:28:28;;;;;;;;;;;;;;;33.37;27.99;93802.53;4898777;29;20399;-47
2021/08/29 06:31:21;;;;;;;;;;;;;;;33.51;28.43;93810.06;4897180;29;20315;-48
2021/08/29 06:34:14;;;;;;;;;;;;;;;33.62;27.60;93802.31;4877131;29;19934;-48
2021/08/29 06:36:41;;;;;;;;;;;;;;;33.68;27.91;93805.94;4884145;29;19920;-48
2021/08/29 06:39:08;;;;;;;;;;;;;;;33.69;27.64;93812.09;4884360;29;19927;-47
2021/08/29 06:41:35;;;;;;;;;;;;;;;33.64;27.85;93827.00;4882981;29;19923;-48
2021/08/29 06:44:05;;;;;;;;;;;;;;;33.57;28.00;93830.00;4884056;29;19928;-50
2021/08/29 06:46:50;;;;;;;;;;;;;;;33.70;27.32;93830.63;4885987;29;20244;-48
2021/08/29 06:49:36;;;;;;;;;;;;;;;34.22;27.12;93847.94;4900005;29;19923;-48
2021/08/29 06:52:21;;;;;;;;;;;;;;;34.42;26.53;93827.78;4900878;29;19926;-50
2021/08/29 06:55:07;;;;;;;;;;;;;;;34.50;26.69;93834.41;4889102;29;19927;-47
2021/08/29 06:58:03;;;;;;;;;;;;;;;34.93;26.44;93823.25;4864918;29;19924;-50
2021/08/29 07:00:31;;;;;;;;;;;;;;;35.24;26.07;93835.84;4882604;29;19923;-64
2021/08/29 07:03:01;;;;;;;;;;;;;;;35.38;25.45;93840.63;4882216;29;19935;-56
2021/08/29 07:05:27;;;;;;;;;;;;;;;35.57;25.37;93835.13;4912998;29;19997;-54
2021/08/29 07:08:17;;;;;;;;;;;;;;;35.88;24.85;93827.44;4871096;29;19923;-54
2021/08/29 07:10:46;;;;;;;;;;;;;;;35.33;26.02;93827.66;4903443;29;19923;-59
2021/08/29 07:13:48;;;;;;;;;;;;;;;35.14;25.63;93816.09;4859367;29;19937;-61
2021/08/29 07:16:15;;;;;;;;;;;;;;;35.51;25.30;93816.75;4874776;29;19927;-55
2021/08/29 07:18:42;;;;;;;;;;;;;;;35.16;25.84;93823.78;4915187;29;20580;-68
2021/08/29 07:21:14;;;;;;;;;;;;;;;34.89;25.73;93811.78;4900768;29;19927;-63
2021/08/29 07:24:00;;;;;;;;;;;;;;;35.14;25.99;93820.78;4901761;29;19924;-64
2021/08/29 07:26:45;;;;;;;;;;;;;;;35.53;25.57;93817.03;4901081;29;20315;-65
2021/08/29 07:29:31;;;;;;;;;;;;;;;35.58;25.21;93825.75;4900725;29;19924;-66
2021/08/29 07:32:16;;;;;;;;;;;;;;;35.89;24.81;93818.06;4901325;29;20258;-65
2021/08/29 07:34:43;;;;;;;;;;;;;;;35.92;24.81;93816.44;4919120;29;19928;-73
2021/08/29 07:37:28;;;;;;;;;;;;;;;36.16;25.33;93825.31;4901231;29;19950;-61
2021/08/29 07:39:55;;;;;;;;;;;;;;;36.78;23.99;93826.53;4915908;29;19927;-61
2021/08/29 07:42:22;;;;;;;;;;;;;;;36.40;24.65;93828.03;4915164;29;19927;-59
2021/08/29 07:44:49;;;;;;;;;;;;;;;36.88;24.03;93823.28;4913998;29;19942;-55
2021/08/29 07:47:22;;;;;;;;;;;;;;;36.75;23.86;93831.69;4879012;29;19920;-52
2021/08/29 07:49:49;;;;;;;;;;;;;;;36.96;23.83;93821.69;4874834;29;19920;-50
2021/08/29 07:52:16;;;;;;;;;;;;;;;37.15;23.19;93819.50;4878823;29;19939;-49
2021/08/29 07:55:01;;;;;;;;;;;;;;;37.26;23.34;93827.16;4894152;29;19927;-43
2021/08/29 07:57:47;;;;;;;;;;;;;;;37.42;22.69;93820.44;4900065;29;19924;-50
2021/08/29 08:00:18;;;;;;;;;;;;;;;37.30;23.02;93820.28;4895350;29;19919;-47
2021/08/29 08:02:59;;;;;;;;;;;;;;;37.31;22.36;93810.16;4873937;29;19920;-49
2021/08/29 08:05:46;;;;;;;;;;;;;;;37.58;22.58;93809.06;4883511;29;20816;-56
2021/08/29 08:08:45;;;;;;;;;;;;;;;37.50;22.57;93811.44;4857228;29;19961;-55
2021/08/29 08:11:30;;;;;;;;;;;;;;;37.61;22.21;93821.75;4899539;29;19919;-55
2021/08/29 08:13:58;;;;;;;;;;;;;;;37.25;22.84;93818.22;4883466;29;19940;-55
2021/08/29 08:16:24;;;;;;;;;;;;;;;37.02;22.72;93817.09;4879285;29;19959;-54
2021/08/29 08:18:52;;;;;;;;;;;;;;;37.12;22.66;93820.47;4883989;29;19930;-56
2021/08/29 08:21:20;;;;;;;;;;;;;;;37.02;23.63;93821.78;4880389;29;20232;-58
2021/08/29 08:23:47;;;;;;;;;;;;;;;37.47;23.05;93823.25;4896913;29;19919;-60
2021/08/29 08:26:34;;;;;;;;;;;;;;;37.31;23.31;93829.22;4911342;23;19927;-60
2021/08/29 08:29:19;;;;;;;;;;;;;;;37.23;23.29;93822.63;4904335;29;19919;-58
2021/08/29 08:32:01;;;;;;;;;;;;;;;37.41;22.66;93825.16;4918028;29;19930;-62
2021/08/29 08:34:51;;;;;;;;;;;;;;;37.51;22.84;93817.63;4900032;29;19927;-55
2021/08/29 08:37:28;;;;;;;;;;;;;;;37.54;22.77;93822.88;4932880;29;19919;-56
2021/08/29 08:40:10;;;;;;;;;;;;;;;37.60;22.65;93826.44;4918937;29;19919;-57
2021/08/29 08:42:41;;;;;;;;;;;;;;;37.38;23.17;93822.63;4900801;29;19923;-59
2021/08/29 08:45:26;;;;;;;;;;;;;;;37.45;23.29;93819.50;4905267;29;19919;-60
2021/08/29 08:48:11;;;;;;;;;;;;;;;37.62;22.46;93818.53;4915985;29;20315;-60
2021/08/29 08:50:57;;;;;;;;;;;;;;;37.54;22.42;93820.16;4930017;29;20008;-61
2021/08/29 08:53:59;;;;;;;;;;;;;;;37.61;22.64;93816.28;4860116;29;19960;-60
2021/08/29 08:56:46;;;;;;;;;;;;;;;37.67;22.21;93814.38;4858921;29;20323;-58
2021/08/29 08:59:43;;;;;;;;;;;;;;;37.53;22.25;93812.47;4898108;29;20319;-58
2021/08/29 09:02:29;;;;;;;;;;;;;;;37.55;22.55;93818.19;4917810;29;19926;-62
2021/08/29 09:05:15;;;;;;;;;;;;;;;36.50;24.39;93815.88;4909788;29;19949;-59
2021/08/29 09:07:42;;;;;;;;;;;;;;;35.79;24.96;93811.91;4895972;29;19919;-60
2021/08/29 09:10:11;;;;;;;;;;;;;;;35.77;25.14;93800.00;4927757;29;19923;-60
2021/08/29 09:12:53;;;;;;;;;;;;;;;36.06;25.19;93804.84;4922064;29;19927;-60
2021/08/29 09:15:20;;;;;;;;;;;;;;;36.28;25.36;93801.81;4903916;29;20326;-61
2021/08/29 09:17:50;;;;;;;;;;;;;;;36.33;24.81;93803.91;4904417;29;19919;-61
2021/08/29 09:20:28;;;;;;;;;;;;;;;36.43;24.18;93794.44;4905649;29;19919;-64
2021/08/29 09:22:58;;;;;;;;;;;;;;;36.25;24.59;93805.47;4905297;29;20239;-60
2021/08/29 09:26:00;;;;;;;;;;;;;;;36.52;24.69;93796.38;4884570;29;19928;-65
2021/08/29 09:28:27;;;;;;;;;;;;;;;36.56;25.19;93800.41;4914166;29;20005;-61
2021/08/29 09:30:57;;;;;;;;;;;;;;;36.18;25.39;93801.13;4905774;29;19930;-62
2021/08/29 09:33:29;;;;;;;;;;;;;;;35.56;26.20;93793.63;4920787;29;19923;-62
2021/08/29 09:35:56;;;;;;;;;;;;;;;36.47;24.97;93795.03;4922266;29;19919;-58
2021/08/29 09:38:46;;;;;;;;;;;;;;;35.96;26.04;93787.84;4908839;29;19923;-62
2021/08/29 09:41:24;;;;;;;;;;;;;;;35.84;25.99;93791.53;4936893;29;19919;-63
2021/08/29 09:44:15;;;;;;;;;;;;;;;35.80;25.62;93793.63;4905284;29;20327;-62
2021/08/29 09:46:52;;;;;;;;;;;;;;;35.40;25.89;93805.63;4905224;29;19926;-60
2021/08/29 09:49:38;;;;;;;;;;;;;;;35.24;26.83;93808.66;4904714;29;20211;-63
2021/08/29 09:52:27;;;;;;;;;;;;;;;35.17;26.42;93806.28;4911544;29;20335;-61
2021/08/29 09:55:38;;;;;;;;;;;;;;;35.05;26.99;93802.53;4880955;29;19954;-64
2021/08/29 09:58:25;;;;;;;;;;;;;;;34.89;26.77;93800.19;4914414;29;19966;-64
2021/08/29 10:01:12;;;;;;;;;;;;;;;35.11;26.56;93797.97;4907809;29;19919;-60
2021/08/29 10:03:45;;;;;;;;;;;;;;;35.09;26.48;93791.50;4904832;29;19927;-57
2021/08/29 10:06:15;;;;;;;;;;;;;;;34.80;26.81;93792.75;4904931;29;19923;-60
2021/08/29 10:08:49;;;;;;;;;;;;;;;34.83;26.66;93796.53;4915375;29;19923;-62
2021/08/29 10:11:29;;;;;;;;;;;;;;;34.89;26.64;93798.22;4902359;29;19920;-61
2021/08/29 10:13:57;;;;;;;;;;;;;;;34.80;26.76;93795.47;4904993;29;19923;-59
2021/08/29 10:16:29;;;;;;;;;;;;;;;34.56;27.25;93792.63;4904814;29;19923;-63
2021/08/29 10:19:28;;;;;;;;;;;;;;;34.88;27.07;93793.25;4918187;29;20079;-60
2021/08/29 10:22:14;;;;;;;;;;;;;;;34.77;27.30;93788.25;4921021;29;19928;-58
2021/08/29 10:24:41;;;;;;;;;;;;;;;35.06;26.64;93787.75;4900714;29;19927;-59
2021/08/29 10:27:13;;;;;;;;;;;;;;;35.24;26.62;93789.66;4901292;29;20012;-64
2021/08/29 10:30:00;;;;;;;;;;;;;;;35.38;26.58;93789.00;4902435;29;19919;-60
2021/08/29 10:32:57;;;;;;;;;;;;;;;34.99;26.79;93787.31;4900321;29;19934;-58
2021/08/29 10:35:45;;;;;;;;;;;;;;;34.88;27.08;93794.00;4890905;29;19923;-61
2021/08/29 10:38:41;;;;;;;;;;;;;;;34.99;26.69;93787.31;4896894;29;19964;-62
2021/08/29 10:41:26;;;;;;;;;;;;;;;35.66;25.99;93776.06;4920533;29;19923;-59
2021/08/29 10:44:00;;;;;;;;;;;;;;;35.56;26.21;93784.72;4916471;29;20254;-59
2021/08/29 10:46:46;;;;;;;;;;;;;;;36.17;25.70;93771.66;4933201;29;20540;-60
2021/08/29 10:49:41;;;;;;;;;;;;;;;36.43;25.46;93772.69;4864626;29;19928;-60
2021/08/29 10:52:08;;;;;;;;;;;;;;;35.77;25.56;93772.81;4903720;29;19923;-58
2021/08/29 10:54:37;;;;;;;;;;;;;;;35.69;25.89;93774.38;4903740;29;19923;-58
2021/08/29 10:57:23;;;;;;;;;;;;;;;36.12;24.76;93771.09;4934898;29;19930;-60
2021/08/29 11:00:01;;;;;;;;;;;;;;;35.64;26.01;93775.00;4935166;29;19919;-62
2021/08/29 11:02:40;;;;;;;;;;;;;;;36.43;24.71;93778.13;4903360;29;20340;-59
2021/08/29 11:05:27;;;;;;;;;;;;;;;36.50;24.84;93772.34;4914027;29;19923;-60
2021/08/29 11:07:58;;;;;;;;;;;;;;;36.52;24.96;93763.69;4934841;29;19923;-59
2021/08/29 11:10:37;;;;;;;;;;;;;;;36.65;24.09;93753.28;4903633;29;19919;-61
2021/08/29 11:13:44;;;;;;;;;;;;;;;36.65;24.19;93751.31;4934792;29;20250;-60
2021/08/29 11:16:15;;;;;;;;;;;;;;;36.39;24.60;93761.97;4826257;29;20218;-61
2021/08/29 11:19:16;;;;;;;;;;;;;;;36.60;25.27;93762.09;4823105;29;19920;-60
2021/08/29 11:22:03;;;;;;;;;;;;;;;36.51;24.96;93762.94;4885753;29;20338;-63
2021/08/29 11:25:21;;;;;;;;;;;;;;;36.65;24.65;93745.88;4887860;29;19923;-62
2021/08/29 11:27:55;;;;;;;;;;;;;;;36.86;24.58;93752.19;4901401;29;20360;-63
2021/08/29 11:30:41;;;;;;;;;;;;;;;36.70;24.83;93753.41;4907782;29;20270;-59
2021/08/29 11:33:24;;;;;;;;;;;;;;;36.57;25.27;93763.03;4902724;29;19931;-60
2021/08/29 11:35:58;;;;;;;;;;;;;;;36.44;24.71;93761.34;4898288;29;19920;-62
2021/08/29 11:38:51;;;;;;;;;;;;;;;36.43;24.97;93767.25;4914354;29;20207;-65
2021/08/29 11:41:18;;;;;;;;;;;;;;;36.49;24.54;93759.94;4903062;29;19923;-58
2021/08/29 11:43:49;;;;;;;;;;;;;;;36.78;24.45;93753.00;4902837;29;19946;-61
2021/08/29 11:46:20;;;;;;;;;;;;;;;36.86;24.47;93751.44;4902930;29;19926;-60
2021/08/29 11:49:13;;;;;;;;;;;;;;;37.19;23.73;93754.69;4913049;29;20250;-59
2021/08/29 11:51:56;;;;;;;;;;;;;;;37.23;24.15;93755.25;4898491;29;19927;-57
2021/08/29 11:54:33;;;;;;;;;;;;;;;37.05;24.41;93748.03;4931314;29;19923;-60
2021/08/29 11:57:01;;;;;;;;;;;;;;;36.33;24.82;93742.09;4918274;29;19937;-56
2021/08/29 11:59:32;;;;;;;;;;;;;;;37.14;24.46;93741.72;4915023;29;19927;-58
2021/08/29 12:02:10;;;;;;;;;;;;;;;37.30;23.83;93746.72;4906571;29;19919;-58
2021/08/29 12:04:45;;;;;;;;;;;;;;;37.73;23.35;93747.06;4898505;29;19923;-60
2021/08/29 12:07:30;;;;;;;;;;;;;;;38.07;23.20;93728.41;4913011;29;19919;-59
2021/08/29 12:10:18;;;;;;;;;;;;;;;38.20;22.37;93734.28;4889582;29;19931;-57
2021/08/29 12:13:03;;;;;;;;;;;;;;;37.41;23.43;93720.84;4905134;29;20330;-58
2021/08/29 12:15:55;;;;;;;;;;;;;;;37.79;23.29;93726.09;4914750;29;19919;-57
2021/08/29 12:18:57;;;;;;;;;;;;;;;38.04;23.16;93716.47;4921812;29;19919;-52
2021/08/29 12:21:45;;;;;;;;;;;;;;;37.62;24.20;93714.19;4917907;29;19930;-51
2021/08/29 12:24:33;;;;;;;;;;;;;;;37.82;23.56;93708.78;4876368;29;20208;-53
2021/08/29 12:27:03;;;;;;;;;;;;;;;37.70;23.73;93704.38;4909947;29;19927;-52
2021/08/29 12:29:30;;;;;;;;;;;;;;;38.59;22.76;93703.91;4898250;29;19927;-55
2021/08/29 12:32:08;;;;;;;;;;;;;;;38.26;23.08;93694.16;4916879;29;19923;-56
2021/08/29 12:34:35;;;;;;;;;;;;;;;38.81;22.38;93688.47;4911689;29;20251;-51
2021/08/29 12:37:03;;;;;;;;;;;;;;;38.87;22.44;93688.53;4910977;29;19920;-53
2021/08/29 12:39:30;;;;;;;;;;;;;;;39.02;21.87;93686.38;4930471;29;20242;-53
2021/08/29 12:42:16;;;;;;;;;;;;;;;39.14;21.51;93682.53;4932511;29;19926;-56
2021/08/29 12:44:49;;;;;;;;;;;;;;;38.83;22.23;93685.25;4901469;29;19930;-59
2021/08/29 12:47:16;;;;;;;;;;;;;;;38.93;22.17;93694.75;4918835;29;19923;-55
2021/08/29 12:49:42;;;;;;;;;;;;;;;39.12;21.71;93685.00;4912399;29;19919;-58
2021/08/29 12:52:14;;;;;;;;;;;;;;;38.83;22.25;93679.81;4932885;29;19927;-53
2021/08/29 12:54:41;;;;;;;;;;;;;;;38.44;22.83;93684.88;4917848;29;19927;-53
2021/08/29 12:57:07;;;;;;;;;;;;;;;38.55;23.05;93674.84;4901811;29;19923;-56
2021/08/29 12:59:36;;;;;;;;;;;;;;;38.81;22.41;93676.81;4914654;29;19923;-57
2021/08/29 13:02:03;;;;;;;;;;;;;;;38.32;23.18;93677.84;4917059;29;19935;-59
2021/08/29 13:04:30;;;;;;;;;;;;;;;38.46;22.75;93669.53;4918577;29;19939;-72
2021/08/29 13:07:04;;;;;;;;;;;;;;;38.65;22.77;93675.44;4918839;29;20307;-54
2021/08/29 13:09:33;;;;;;;;;;;;;;;38.49;22.81;93668.56;4915303;29;19920;-57
2021/08/29 13:12:03;;;;;;;;;;;;;;;38.67;22.26;93677.69;4925574;29;19923;-56
2021/08/29 13:14:32;;;;;;;;;;;;;;;38.54;22.48;93675.31;4937686;29;19923;-53
2021/08/29 13:17:17;;;;;;;;;;;;;;;38.80;22.80;93672.59;4937245;29;19922;-57
2021/08/29 13:20:01;;;;;;;;;;;;;;;38.64;22.26;93657.56;4937421;29;20373;-58
2021/08/29 13:22:29;;;;;;;;;;;;;;;38.89;22.60;93663.44;4937391;29;20311;-63
2021/08/29 13:24:55;;;;;;;;;;;;;;;38.53;22.77;93658.19;4921845;29;19930;-70
2021/08/29 13:27:22;;;;;;;;;;;;;;;38.31;23.03;93658.00;4915539;29;19927;-65